Time;durP1;ratioP1;P1;durP2;ratioP2;P2;SDS_P1;SDS_P2;PMS_P1;PMS_P2;Temp;Humidity;BMP_temperature;BMP_pressure;BME280_temperature;BME280_humidity;BME280_pressure;Samples;Min_cycle;Max_cycle;Signal;HPM_P1;HPM_P2
2023/07/09 00:01:51;;;;;;;10.15;8.02;;;16.80;99.90;;;;;;5036152;28;20032;-57
2023/07/09 00:04:18;;;;;;;8.10;7.43;;;16.70;99.90;;;;;;5019183;28;20032;-56
2023/07/09 00:06:43;;;;;;;8.57;7.78;;;16.70;99.90;;;;;;5023169;28;20036;-56
2023/07/09 00:09:18;;;;;;;9.40;8.60;;;16.60;99.90;;;;;;5025810;28;20026;-56
2023/07/09 00:11:44;;;;;;;8.30;7.47;;;16.60;99.90;;;;;;5019884;28;20032;-57
2023/07/09 00:14:12;;;;;;;17.73;7.93;;;16.50;99.90;;;;;;5033660;28;20835;-55
2023/07/09 00:16:38;;;;;;;7.85;7.10;;;16.50;99.90;;;;;;5036448;28;20073;-56
2023/07/09 00:19:13;;;;;;;7.95;7.35;;;16.40;99.90;;;;;;5017396;28;20027;-56
2023/07/09 00:21:40;;;;;;;8.05;7.35;;;16.40;99.90;;;;;;5026399;28;20026;-55
2023/07/09 00:24:07;;;;;;;8.43;7.47;;;16.50;99.90;;;;;;5027957;28;20049;-56
2023/07/09 00:26:33;;;;;;;8.15;7.55;;;16.40;99.90;;;;;;5018888;28;20038;-55
2023/07/09 00:28:59;;;;;;;8.38;7.57;;;16.40;99.90;;;;;;5033836;28;20022;-57
2023/07/09 00:31:25;;;;;;;7.75;7.05;;;16.40;99.90;;;;;;5015172;28;20061;-55
2023/07/09 00:33:51;;;;;;;7.90;7.10;;;16.40;99.90;;;;;;5028577;28;20140;-57
2023/07/09 00:36:28;;;;;;;7.95;7.25;;;16.40;99.90;;;;;;5029116;28;20476;-57
2023/07/09 00:38:55;;;;;;;7.53;6.65;;;16.40;99.90;;;;;;5020815;28;20060;-56
2023/07/09 00:41:23;;;;;;;9.80;7.72;;;16.40;99.90;;;;;;5035557;28;20027;-57
2023/07/09 00:43:51;;;;;;;8.88;7.75;;;16.30;99.90;;;;;;5013614;28;20036;-57
2023/07/09 00:46:19;;;;;;;10.02;8.00;;;16.30;99.90;;;;;;5034185;28;20560;-56
2023/07/09 00:49:05;;;;;;;8.27;7.53;;;16.30;99.90;;;;;;5025841;28;20037;-58
2023/07/09 00:51:32;;;;;;;8.73;7.78;;;16.20;99.90;;;;;;5025621;28;20025;-57
2023/07/09 00:54:07;;;;;;;9.88;8.02;;;16.10;99.90;;;;;;5024675;28;20030;-57
2023/07/09 00:56:40;;;;;;;7.97;7.38;;;16.10;99.90;;;;;;5019776;28;20087;-56
2023/07/09 00:59:12;;;;;;;8.85;8.15;;;16.00;99.90;;;;;;5040076;28;20047;-56
2023/07/09 01:01:40;;;;;;;9.73;8.52;;;16.00;99.90;;;;;;5041495;28;20041;-56
2023/07/09 01:04:10;;;;;;;9.70;8.70;;;15.90;99.90;;;;;;5022461;28;20490;-57
2023/07/09 01:06:48;;;;;;;9.40;8.52;;;15.80;99.90;;;;;;5029998;28;20038;-55
2023/07/09 01:09:14;;;;;;;9.20;8.38;;;15.80;99.90;;;;;;5028664;28;20469;-55
2023/07/09 01:11:40;;;;;;;10.05;8.75;;;15.80;99.90;;;;;;5019965;28;20025;-57
2023/07/09 01:14:08;;;;;;;8.48;7.85;;;15.70;99.90;;;;;;5040755;28;20501;-57
2023/07/09 01:16:37;;;;;;;9.13;8.35;;;15.80;99.90;;;;;;5018109;28;20026;-56
2023/07/09 01:19:04;;;;;;;9.13;8.32;;;15.80;99.90;;;;;;5033786;28;20021;-55
2023/07/09 01:21:32;;;;;;;8.85;8.05;;;15.80;99.90;;;;;;5029549;28;20517;-56
2023/07/09 01:23:58;;;;;;;8.52;7.72;;;15.70;99.90;;;;;;5026728;28;20021;-56
2023/07/09 01:26:26;;;;;;;9.57;8.77;;;15.70;99.90;;;;;;5038179;28;20048;-57
2023/07/09 01:28:55;;;;;;;8.38;7.45;;;15.70;99.90;;;;;;5020465;28;20048;-57
2023/07/09 01:31:23;;;;;;;8.88;7.95;;;15.70;99.90;;;;;;5037737;28;20033;-57
2023/07/09 01:33:49;;;;;;;8.50;7.70;;;15.60;99.90;;;;;;5026094;28;20395;-57
2023/07/09 01:36:23;;;;;;;8.07;7.28;;;15.60;99.90;;;;;;5028299;28;20037;-58
2023/07/09 01:38:50;;;;;;;8.35;7.65;;;15.60;99.90;;;;;;5035152;28;20083;-57
2023/07/09 01:41:16;;;;;;;8.73;7.82;;;15.60;99.90;;;;;;5023545;28;20053;-56
2023/07/09 01:43:43;;;;;;;9.13;8.27;;;15.60;99.90;;;;;;5038779;28;20517;-56
2023/07/09 01:46:12;;;;;;;8.15;7.50;;;15.60;99.90;;;;;;5020731;28;20045;-56
2023/07/09 01:48:40;;;;;;;9.27;8.38;;;15.50;99.90;;;;;;5032757;28;20046;-54
2023/07/09 01:51:12;;;;;;;8.55;7.72;;;15.40;99.90;;;;;;5031324;28;20037;-55
2023/07/09 01:53:38;;;;;;;8.48;7.78;;;15.30;99.90;;;;;;5024044;28;20409;-56
2023/07/09 01:56:07;;;;;;;10.93;7.93;;;15.30;99.90;;;;;;5038302;28;20052;-56
2023/07/09 01:58:33;;;;;;;7.47;6.88;;;15.20;99.90;;;;;;5018878;28;20107;-57
2023/07/09 02:00:59;;;;;;;8.70;8.00;;;15.20;99.90;;;;;;5033462;28;20463;-56
2023/07/09 02:03:25;;;;;;;8.40;7.68;;;15.10;99.90;;;;;;5029236;28;20553;-56
2023/07/09 02:05:54;;;;;;;10.32;9.52;;;15.10;99.90;;;;;;5021214;28;20113;-58
2023/07/09 02:08:20;;;;;;;10.25;8.98;;;15.20;99.90;;;;;;5035563;28;20022;-57
2023/07/09 02:10:48;;;;;;;9.18;8.30;;;15.20;99.90;;;;;;5017545;28;20029;-57
2023/07/09 02:13:14;;;;;;;9.13;7.65;;;15.10;99.90;;;;;;5035483;28;20029;-57
2023/07/09 02:15:43;;;;;;;11.43;9.07;;;15.10;99.90;;;;;;5028843;28;20111;-56
2023/07/09 02:18:12;;;;;;;9.27;8.48;;;15.10;99.90;;;;;;5024643;28;20549;-57
2023/07/09 02:20:38;;;;;;;9.88;9.02;;;15.10;99.90;;;;;;5035335;28;20461;-56
2023/07/09 02:23:07;;;;;;;8.38;7.55;;;15.10;99.90;;;;;;5023643;28;20065;-57
2023/07/09 02:25:33;;;;;;;8.75;7.95;;;15.10;99.90;;;;;;5036911;28;20040;-56
2023/07/09 02:27:59;;;;;;;9.38;8.50;;;15.10;99.90;;;;;;5023270;28;20125;-57
2023/07/09 02:30:25;;;;;;;10.40;8.98;;;15.00;99.90;;;;;;5026744;28;20100;-57
2023/07/09 02:32:53;;;;;;;9.52;8.73;;;15.10;99.90;;;;;;5028584;28;20060;-57
2023/07/09 02:35:20;;;;;;;9.88;9.05;;;15.10;99.90;;;;;;5019274;28;20424;-57
2023/07/09 02:37:45;;;;;;;8.45;7.75;;;15.10;99.90;;;;;;5034914;28;20057;-57
2023/07/09 02:40:12;;;;;;;11.15;8.95;;;15.10;99.90;;;;;;5018594;28;20061;-56
2023/07/09 02:42:37;;;;;;;8.98;8.38;;;15.10;99.90;;;;;;5029294;28;20036;-55
2023/07/09 02:45:04;;;;;;;8.85;8.15;;;15.10;99.90;;;;;;5027533;28;20453;-57
2023/07/09 02:47:29;;;;;;;9.15;8.32;;;15.00;99.90;;;;;;5015357;28;20017;-56
2023/07/09 02:49:55;;;;;;;9.60;8.80;;;14.90;99.90;;;;;;5035125;28;20477;-56
2023/07/09 02:52:21;;;;;;;10.45;9.55;;;14.90;99.90;;;;;;5020279;28;20033;-57
2023/07/09 02:54:46;;;;;;;9.75;8.85;;;14.90;99.90;;;;;;5029295;28;20776;-55
2023/07/09 02:57:12;;;;;;;8.43;7.72;;;14.80;99.90;;;;;;5030174;28;20029;-56
2023/07/09 02:59:37;;;;;;;9.27;8.43;;;14.80;99.90;;;;;;5021147;28;20028;-55
2023/07/09 03:02:03;;;;;;;9.43;8.25;;;14.80;99.90;;;;;;5035001;28;20093;-56
2023/07/09 03:04:31;;;;;;;9.13;8.32;;;14.70;99.90;;;;;;5022962;28;20029;-55
2023/07/09 03:06:56;;;;;;;8.68;7.90;;;14.70;99.90;;;;;;5029558;28;20121;-55
2023/07/09 03:09:22;;;;;;;8.18;7.40;;;14.70;99.90;;;;;;5028635;28;20136;-55
2023/07/09 03:11:48;;;;;;;9.13;8.25;;;14.70;99.90;;;;;;5022186;28;20035;-55
2023/07/09 03:14:15;;;;;;;9.05;8.35;;;14.70;99.90;;;;;;5037833;28;20060;-55
2023/07/09 03:16:40;;;;;;;9.05;8.35;;;14.70;99.90;;;;;;5017064;28;20064;-56
2023/07/09 03:19:06;;;;;;;9.00;8.27;;;14.60;99.90;;;;;;5033218;28;20497;-56
2023/07/09 03:21:32;;;;;;;7.65;7.03;;;14.60;99.90;;;;;;5026098;28;20790;-56
2023/07/09 03:23:58;;;;;;;8.30;7.50;;;14.60;99.90;;;;;;5022451;28;20140;-56
2023/07/09 03:26:25;;;;;;;9.15;8.07;;;14.60;99.90;;;;;;5034316;28;20522;-56
2023/07/09 03:28:51;;;;;;;8.80;8.10;;;14.60;99.90;;;;;;5014732;28;20512;-57
2023/07/09 03:31:17;;;;;;;11.02;9.05;;;14.70;99.90;;;;;;5033500;28;20506;-57
2023/07/09 03:33:43;;;;;;;9.48;8.68;;;14.70;99.90;;;;;;5023705;28;20084;-55
2023/07/09 03:36:08;;;;;;;10.80;9.70;;;14.80;99.90;;;;;;5025771;28;20032;-56
2023/07/09 03:38:34;;;;;;;9.80;9.00;;;14.80;99.90;;;;;;5031488;28;20581;-55
2023/07/09 03:41:00;;;;;;;9.70;8.80;;;14.80;99.90;;;;;;5017229;28;20029;-57
2023/07/09 03:43:26;;;;;;;9.55;8.75;;;14.80;99.90;;;;;;5033794;28;20108;-55
2023/07/09 03:45:51;;;;;;;15.38;8.77;;;14.70;99.90;;;;;;5023885;28;20855;-55
2023/07/09 03:48:19;;;;;;;8.60;7.80;;;14.70;99.90;;;;;;5024230;28;20037;-56
2023/07/09 03:50:46;;;;;;;9.07;8.38;;;14.70;99.90;;;;;;5031867;28;20501;-55
2023/07/09 03:53:13;;;;;;;9.93;9.13;;;14.70;99.90;;;;;;5023274;28;20080;-56
2023/07/09 03:55:39;;;;;;;8.82;7.93;;;14.70;99.90;;;;;;5015829;28;20088;-56
2023/07/09 03:58:05;;;;;;;8.75;7.57;;;14.70;99.90;;;;;;5030667;28;20432;-54
2023/07/09 04:00:31;;;;;;;8.93;8.10;;;14.70;99.90;;;;;;5026846;28;20026;-55
2023/07/09 04:02:57;;;;;;;9.00;8.20;;;14.70;99.90;;;;;;5024673;28;20052;-56
2023/07/09 04:05:26;;;;;;;9.23;8.38;;;14.80;99.90;;;;;;5036299;28;20017;-57
2023/07/09 04:07:52;;;;;;;9.57;8.80;;;14.80;99.90;;;;;;5018616;28;20017;-56
2023/07/09 04:10:18;;;;;;;9.82;8.82;;;14.80;99.90;;;;;;5029783;28;20448;-56
2023/07/09 04:12:44;;;;;;;9.07;8.27;;;14.80;99.90;;;;;;5025402;28;20038;-53
2023/07/09 04:15:12;;;;;;;10.45;9.68;;;14.90;99.90;;;;;;5025115;28;20082;-56
2023/07/09 04:17:38;;;;;;;11.15;9.68;;;15.00;99.90;;;;;;5034119;28;20112;-56
2023/07/09 04:20:07;;;;;;;9.88;8.98;;;15.00;99.90;;;;;;5018506;28;20079;-56
2023/07/09 04:22:34;;;;;;;11.07;9.68;;;15.10;99.90;;;;;;5031549;28;20091;-55
2023/07/09 04:25:02;;;;;;;10.45;9.57;;;15.20;99.90;;;;;;5020195;28;20040;-57
2023/07/09 04:27:28;;;;;;;11.75;9.98;;;15.30;99.90;;;;;;5026749;28;20159;-57
2023/07/09 04:29:54;;;;;;;10.75;9.70;;;15.40;99.90;;;;;;5030140;28;20508;-56
2023/07/09 04:32:20;;;;;;;9.82;9.05;;;15.50;99.90;;;;;;5020424;28;20397;-57
2023/07/09 04:34:46;;;;;;;11.60;10.25;;;15.50;99.90;;;;;;5041842;28;20028;-56
2023/07/09 04:37:12;;;;;;;10.80;9.68;;;15.60;99.90;;;;;;5026932;28;20029;-57
2023/07/09 04:39:39;;;;;;;10.73;9.82;;;15.60;99.90;;;;;;5031412;28;20025;-55
2023/07/09 04:42:06;;;;;;;9.98;9.18;;;15.70;99.90;;;;;;5034380;28;20041;-56
2023/07/09 04:44:32;;;;;;;10.98;10.13;;;15.70;99.90;;;;;;5020925;28;20486;-55
2023/07/09 04:46:57;;;;;;;9.82;9.02;;;15.70;99.90;;;;;;5039444;28;20025;-56
2023/07/09 04:49:23;;;;;;;10.02;9.30;;;15.80;99.90;;;;;;5020434;28;20021;-55
2023/07/09 04:51:49;;;;;;;10.00;9.02;;;15.80;99.90;;;;;;5031918;28;20549;-57
2023/07/09 04:54:15;;;;;;;10.57;9.73;;;15.80;99.90;;;;;;5029923;28;20038;-55
2023/07/09 04:56:44;;;;;;;10.38;9.35;;;15.90;99.90;;;;;;5023472;28;20025;-55
2023/07/09 04:59:13;;;;;;;10.52;9.63;;;15.90;99.90;;;;;;5039799;28;20040;-54
2023/07/09 05:01:38;;;;;;;9.43;8.57;;;15.90;99.90;;;;;;5021861;28;20416;-57
2023/07/09 05:04:04;;;;;;;10.65;9.60;;;16.00;99.90;;;;;;5023811;28;20034;-55
2023/07/09 05:06:30;;;;;;;10.20;9.00;;;16.10;99.90;;;;;;5015738;28;20022;-57
2023/07/09 05:08:56;;;;;;;9.50;8.80;;;16.10;99.90;;;;;;5023889;28;20037;-55
2023/07/09 05:11:21;;;;;;;9.98;9.07;;;16.20;99.90;;;;;;5035220;28;20029;-56
2023/07/09 05:13:47;;;;;;;10.35;9.55;;;16.30;99.90;;;;;;5023638;28;20030;-56
2023/07/09 05:16:13;;;;;;;10.63;9.73;;;16.30;99.90;;;;;;5036952;28;20760;-56
2023/07/09 05:18:38;;;;;;;10.80;9.90;;;16.40;99.90;;;;;;5027393;28;20050;-56
2023/07/09 05:21:04;;;;;;;9.85;8.98;;;16.50;99.90;;;;;;5027079;28;20048;-57
2023/07/09 05:23:29;;;;;;;16.45;9.27;;;16.50;99.90;;;;;;5038579;28;20400;-57
2023/07/09 05:26:00;;;;;;;9.70;8.88;;;16.60;99.90;;;;;;5015363;28;20454;-57
2023/07/09 05:28:25;;;;;;;9.57;8.70;;;16.70;99.90;;;;;;5039898;28;20028;-57
2023/07/09 05:30:51;;;;;;;9.82;9.02;;;16.90;99.90;;;;;;5025801;28;20659;-57
2023/07/09 05:33:18;;;;;;;9.65;8.50;;;17.00;99.90;;;;;;5028161;28;20033;-57
2023/07/09 05:35:44;;;;;;;8.98;8.27;;;17.10;99.90;;;;;;5034764;28;20033;-55
2023/07/09 05:38:10;;;;;;;12.35;8.27;;;17.30;99.90;;;;;;5025030;28;20033;-57
2023/07/09 05:40:36;;;;;;;9.45;8.50;;;17.40;99.90;;;;;;5037701;28;20421;-55
2023/07/09 05:43:01;;;;;;;9.13;8.07;;;17.50;99.90;;;;;;5023693;28;20413;-56
2023/07/09 05:45:27;;;;;;;9.68;8.98;;;17.60;99.90;;;;;;5028163;28;20017;-54
2023/07/09 05:47:52;;;;;;;8.80;8.00;;;17.70;99.90;;;;;;5033435;28;20632;-58
2023/07/09 05:50:18;;;;;;;8.10;7.50;;;17.80;99.90;;;;;;5021100;28;20021;-57
2023/07/09 05:52:44;;;;;;;8.77;8.07;;;17.90;99.90;;;;;;5041856;28;20037;-57
2023/07/09 05:55:09;;;;;;;9.32;8.63;;;18.10;99.90;;;;;;5021795;28;20033;-56
2023/07/09 05:57:35;;;;;;;8.82;8.07;;;18.20;99.90;;;;;;5033112;28;20033;-57
2023/07/09 06:00:00;;;;;;;9.23;8.43;;;18.30;99.90;;;;;;5032633;28;20026;-57
2023/07/09 06:02:26;;;;;;;8.65;7.85;;;18.40;99.90;;;;;;5023149;28;20042;-56
2023/07/09 06:04:52;;;;;;;8.68;7.93;;;18.60;99.90;;;;;;5042032;28;20025;-58
2023/07/09 06:07:18;;;;;;;8.80;8.00;;;18.70;99.90;;;;;;5022542;28;20053;-57
2023/07/09 06:09:45;;;;;;;8.52;7.82;;;18.90;99.90;;;;;;5030219;28;20033;-57
2023/07/09 06:12:11;;;;;;;8.32;7.53;;;19.10;99.90;;;;;;5028048;28;20030;-57
2023/07/09 06:14:37;;;;;;;8.27;7.57;;;19.30;99.90;;;;;;5020605;28;20061;-57
2023/07/09 06:17:03;;;;;;;8.65;7.95;;;19.40;99.90;;;;;;5037454;28;20437;-57
2023/07/09 06:19:29;;;;;;;7.43;6.80;;;19.50;99.90;;;;;;5023722;28;20609;-58
2023/07/09 06:21:55;;;;;;;9.98;7.35;;;19.70;99.90;;;;;;5035082;28;20116;-56
2023/07/09 06:24:22;;;;;;;9.02;8.32;;;19.80;99.90;;;;;;5027120;28;20108;-58
2023/07/09 06:26:47;;;;;;;8.77;8.00;;;19.90;99.90;;;;;;5022893;28;20419;-57
2023/07/09 06:29:13;;;;;;;8.27;7.57;;;20.00;99.90;;;;;;5038114;28;20127;-56
2023/07/09 06:31:40;;;;;;;7.88;7.28;;;20.10;99.90;;;;;;5017597;28;20029;-55
2023/07/09 06:34:07;;;;;;;8.45;7.75;;;20.30;99.90;;;;;;5036411;28;20053;-57
2023/07/09 06:36:33;;;;;;;8.95;8.00;;;20.40;99.90;;;;;;5026869;28;20037;-56
2023/07/09 06:38:58;;;;;;;9.35;8.05;;;20.50;99.90;;;;;;5024964;28;20369;-56
2023/07/09 06:41:24;;;;;;;8.23;7.55;;;20.60;99.90;;;;;;5035249;28;20029;-58
2023/07/09 06:43:50;;;;;;;8.40;7.60;;;20.70;99.90;;;;;;5019906;28;20103;-58
2023/07/09 06:46:19;;;;;;;8.05;7.25;;;20.80;99.90;;;;;;5040228;28;20025;-55
2023/07/09 06:48:44;;;;;;;11.98;7.47;;;21.00;99.90;;;;;;5041252;28;20038;-56
2023/07/09 06:51:10;;;;;;;7.90;6.88;;;21.10;99.90;;;;;;5031553;28;20516;-57
2023/07/09 06:53:36;;;;;;;11.50;7.32;;;21.20;99.90;;;;;;5019407;28;20044;-56
2023/07/09 06:56:02;;;;;;;7.78;7.07;;;21.30;99.90;;;;;;5038522;28;20551;-57
2023/07/09 06:58:31;;;;;;;7.40;6.80;;;21.40;99.90;;;;;;5019897;28;20026;-57
2023/07/09 07:00:57;;;;;;;8.82;6.55;;;21.50;99.90;;;;;;5031698;28;20021;-57
2023/07/09 07:03:24;;;;;;;6.70;6.13;;;21.70;99.90;;;;;;5039219;28;20083;-58
2023/07/09 07:05:55;;;;;;;7.30;6.60;;;21.90;99.90;;;;;;5030013;28;20326;-58
2023/07/09 07:08:23;;;;;;;7.88;7.20;;;22.00;99.90;;;;;;5018471;28;20513;-57
2023/07/09 07:10:50;;;;;;;7.10;6.50;;;22.20;99.90;;;;;;5038579;28;20116;-58
2023/07/09 07:13:16;;;;;;;6.88;6.25;;;22.30;99.90;;;;;;5021159;28;20049;-57
2023/07/09 07:15:47;;;;;;;8.23;7.43;;;22.50;99.90;;;;;;5032862;28;20146;-57
2023/07/09 07:18:13;;;;;;;7.28;6.68;;;22.60;99.90;;;;;;5027282;28;20033;-57
2023/07/09 07:20:38;;;;;;;7.38;6.75;;;22.80;99.70;;;;;;5020135;28;20029;-58
2023/07/09 07:23:04;;;;;;;7.63;7.03;;;22.90;99.50;;;;;;5038938;28;20397;-57
2023/07/09 07:25:32;;;;;;;7.78;7.18;;;23.10;97.90;;;;;;5018832;28;20033;-57
2023/07/09 07:27:58;;;;;;;6.88;6.38;;;23.20;96.60;;;;;;5031176;28;20083;-57
2023/07/09 07:30:24;;;;;;;7.13;6.53;;;23.40;96.80;;;;;;5027709;28;20027;-57
2023/07/09 07:32:50;;;;;;;8.10;7.20;;;23.50;97.00;;;;;;5021858;28;20210;-57
2023/07/09 07:35:16;;;;;;;7.18;6.35;;;23.60;95.60;;;;;;5039191;28;20026;-58
2023/07/09 07:37:42;;;;;;;7.88;7.18;;;23.70;95.10;;;;;;5020274;28;20123;-58
2023/07/09 07:40:09;;;;;;;7.60;6.93;;;23.90;93.40;;;;;;5034886;28;20028;-56
2023/07/09 07:42:34;;;;;;;7.72;6.90;;;24.00;92.80;;;;;;5042409;28;20673;-58
2023/07/09 07:45:00;;;;;;;7.68;6.95;;;24.20;92.40;;;;;;5032828;28;20117;-57
2023/07/09 07:47:30;;;;;;;8.52;7.05;;;24.30;92.00;;;;;;5018178;28;20026;-57
2023/07/09 07:49:56;;;;;;;9.30;6.68;;;24.50;90.90;;;;;;5039170;28;20469;-57
2023/07/09 07:52:23;;;;;;;6.70;6.20;;;24.60;90.40;;;;;;5038656;28;20053;-58
2023/07/09 07:54:49;;;;;;;8.68;7.45;;;24.80;89.70;;;;;;5023997;28;20029;-58
2023/07/09 07:57:14;;;;;;;6.68;6.18;;;24.90;90.50;;;;;;5023954;28;20370;-59
2023/07/09 07:59:40;;;;;;;6.90;6.40;;;25.10;89.10;;;;;;5035937;28;20029;-57
2023/07/09 08:02:10;;;;;;;6.28;5.68;;;25.20;86.70;;;;;;5021322;28;20025;-59
2023/07/09 08:04:36;;;;;;;6.10;5.60;;;25.30;87.70;;;;;;5040322;28;20034;-57
2023/07/09 08:07:02;;;;;;;7.22;6.07;;;25.50;84.90;;;;;;5027086;28;20029;-57
2023/07/09 08:09:29;;;;;;;7.03;5.57;;;25.60;83.60;;;;;;5029680;28;20025;-57
2023/07/09 08:11:54;;;;;;;7.45;6.65;;;25.80;81.60;;;;;;5036033;28;20398;-58
2023/07/09 08:14:20;;;;;;;7.20;6.00;;;25.90;80.40;;;;;;5021590;28;20026;-59
2023/07/09 08:16:47;;;;;;;5.32;4.82;;;26.00;80.50;;;;;;5042881;28;20029;-55
2023/07/09 08:19:13;;;;;;;6.18;5.38;;;26.20;79.00;;;;;;5025016;28;20041;-57
2023/07/09 08:21:39;;;;;;;5.38;4.88;;;26.30;80.30;;;;;;5030723;28;20505;-57
2023/07/09 08:24:05;;;;;;;5.53;5.03;;;26.40;77.70;;;;;;5035578;28;20042;-58
2023/07/09 08:26:31;;;;;;;6.80;5.35;;;26.60;77.60;;;;;;5023085;28;20083;-58
2023/07/09 08:28:57;;;;;;;5.60;5.07;;;26.70;75.40;;;;;;5044479;28;20420;-58
2023/07/09 08:31:22;;;;;;;7.78;4.63;;;26.90;77.00;;;;;;5023758;28;20030;-57
2023/07/09 08:33:48;;;;;;;7.13;4.70;;;27.10;73.80;;;;;;5033724;28;20068;-57
2023/07/09 08:36:14;;;;;;;5.47;4.97;;;27.30;72.30;;;;;;5031930;28;20026;-59
2023/07/09 08:38:39;;;;;;;5.80;5.22;;;27.50;73.00;;;;;;5022064;28;20120;-56
2023/07/09 08:41:24;;;;;;;6.45;5.03;;;27.60;72.70;;;;;;5040557;28;20485;-58
2023/07/09 08:44:11;;;;;;;7.72;4.95;;;27.70;73.30;;;;;;5020089;28;20099;-60
2023/07/09 08:46:59;;;;;;;6.05;5.45;;;27.80;71.70;;;;;;5038126;28;20517;-58
2023/07/09 08:49:37;;;;;;;5.30;4.80;;;27.90;71.80;;;;;;5020497;28;20026;-58
2023/07/09 08:52:12;;;;;;;5.45;4.60;;;28.00;71.70;;;;;;5036467;28;20041;-59
2023/07/09 08:54:38;;;;;;;5.38;4.93;;;28.20;71.10;;;;;;5027107;28;20022;-58
2023/07/09 08:57:27;;;;;;;6.95;4.80;;;28.30;69.70;;;;;;5025260;28;20028;-59
2023/07/09 09:00:00;;;;;;;5.50;4.70;;;28.40;69.10;;;;;;5034258;28;20037;-57
2023/07/09 09:02:51;;;;;;;5.50;5.00;;;28.60;67.90;;;;;;5019725;28;20030;-59
2023/07/09 09:05:20;;;;;;;5.80;4.93;;;28.70;66.90;;;;;;5035777;28;20029;-57
2023/07/09 09:07:55;;;;;;;5.70;5.00;;;28.90;67.80;;;;;;5017758;28;20703;-58
2023/07/09 09:10:33;;;;;;;4.65;4.13;;;29.00;66.70;;;;;;5037283;28;20033;-57
2023/07/09 09:13:16;;;;;;;4.93;4.50;;;29.00;66.20;;;;;;5023144;28;20111;-58
2023/07/09 09:15:47;;;;;;;4.82;4.43;;;29.10;66.40;;;;;;5032966;28;20040;-58
2023/07/09 09:18:17;;;;;;;;;;;29.20;66.40;;;;;;5029844;28;20037;-58
2023/07/09 09:20:45;;;;;;;4.93;4.45;;;29.30;66.40;;;;;;5022585;28;19913;-59
2023/07/09 09:23:16;;;;;;;5.25;4.80;;;29.50;65.50;;;;;;5041568;28;20025;-58
2023/07/09 09:25:48;;;;;;;4.90;4.50;;;29.70;64.00;;;;;;5039243;28;20045;-57
2023/07/09 09:28:14;;;;;;;5.35;4.75;;;29.90;64.70;;;;;;5022186;28;20065;-57
2023/07/09 09:30:39;;;;;;;5.75;4.28;;;30.10;65.60;;;;;;5031747;28;20057;-59
2023/07/09 09:33:11;;;;;;;4.32;3.92;;;30.20;61.10;;;;;;5031745;28;20057;-59
2023/07/09 09:35:43;;;;;;;6.63;4.35;;;30.40;61.30;;;;;;5023249;28;20021;-59
2023/07/09 09:38:23;;;;;;;4.70;4.28;;;30.50;61.20;;;;;;5039635;28;20437;-57
2023/07/09 09:40:49;;;;;;;4.50;4.10;;;30.50;61.40;;;;;;5019740;28;20116;-59
2023/07/09 09:43:19;;;;;;;5.88;4.35;;;30.70;60.60;;;;;;5021430;28;20038;-57
2023/07/09 09:45:46;;;;;;;4.60;3.67;;;30.80;59.70;;;;;;5032084;28;20112;-59
2023/07/09 09:48:17;;;;;;;6.18;4.47;;;30.80;58.90;;;;;;5032530;28;20598;-59
2023/07/09 09:50:45;;;;;;;4.30;3.90;;;31.10;57.80;;;;;;5019275;28;20112;-58
2023/07/09 09:53:21;;;;;;;4.07;3.78;;;31.30;57.00;;;;;;5037983;28;20552;-58
2023/07/09 09:55:48;;;;;;;5.72;3.30;;;31.50;56.30;;;;;;5041078;28;20048;-59
2023/07/09 09:58:15;;;;;;;3.53;3.22;;;31.80;54.90;;;;;;5022977;28;20029;-59
2023/07/09 10:00:48;;;;;;;5.55;3.65;;;32.00;54.70;;;;;;5030008;28;20623;-59
2023/07/09 10:03:14;;;;;;;4.40;3.78;;;32.20;54.50;;;;;;5029958;28;20727;-58
2023/07/09 10:05:47;;;;;;;4.00;3.67;;;32.40;54.00;;;;;;5022529;28;20037;-58
2023/07/09 10:08:40;;;;;;;3.58;3.28;;;32.60;53.20;;;;;;5040509;28;20096;-57
2023/07/09 10:11:34;;;;;;;4.85;3.58;;;32.90;50.30;;;;;;5022713;28;20458;-57
2023/07/09 10:14:08;;;;;;;3.50;3.17;;;33.10;52.10;;;;;;4991997;28;20025;-60
2023/07/09 10:16:44;;;;;;;6.47;4.05;;;33.20;50.80;;;;;;5033745;28;20021;-60
2023/07/09 10:19:49;;;;;;;4.22;3.53;;;33.20;50.00;;;;;;5025898;28;20033;-56
2023/07/09 10:22:33;;;;;;;3.92;3.55;;;33.20;50.70;;;;;;5035332;28;20033;-59
2023/07/09 10:25:24;;;;;;;4.00;3.22;;;33.10;50.10;;;;;;5020194;28;20037;-59
2023/07/09 10:27:53;;;;;;;3.50;3.13;;;32.80;49.10;;;;;;5031289;28;20085;-59
2023/07/09 10:30:49;;;;;;;3.38;2.90;;;32.40;48.80;;;;;;5028917;28;20042;-58
2023/07/09 10:33:44;;;;;;;3.90;3.45;;;32.40;49.70;;;;;;5027184;28;20029;-58
2023/07/09 10:36:16;;;;;;;6.68;3.80;;;32.50;50.50;;;;;;5031137;28;20117;-58
2023/07/09 10:39:06;;;;;;;5.15;3.65;;;32.60;48.60;;;;;;5020932;28;21143;-57
2023/07/09 10:41:35;;;;;;;3.97;3.58;;;32.60;48.50;;;;;;5034608;28;20112;-58
2023/07/09 10:44:11;;;;;;;4.70;3.15;;;32.60;49.00;;;;;;5015420;28;20764;-58
2023/07/09 10:46:41;;;;;;;3.90;3.28;;;32.60;49.70;;;;;;5036283;28;20047;-57
2023/07/09 10:49:12;;;;;;;5.95;3.63;;;32.60;47.10;;;;;;5023165;28;20657;-61
2023/07/09 10:51:40;;;;;;;4.75;3.05;;;32.60;47.80;;;;;;5026860;28;20052;-58
2023/07/09 10:54:21;;;;;;;3.83;3.17;;;32.70;48.20;;;;;;5031793;28;20032;-59
2023/07/09 10:56:51;;;;;;;6.88;4.10;;;32.80;48.50;;;;;;5018671;28;20038;-58
2023/07/09 10:59:19;;;;;;;3.80;3.20;;;33.00;49.00;;;;;;5018190;28;20057;-59
2023/07/09 11:01:53;;;;;;;5.32;4.07;;;33.10;48.50;;;;;;5021162;28;20025;-59
2023/07/09 11:05:02;;;;;;;5.65;3.30;;;33.20;48.30;;;;;;5019166;28;20033;-58
2023/07/09 11:07:28;;;;;;;5.90;3.78;;;33.30;47.50;;;;;;4984696;28;20038;-58
2023/07/09 11:09:57;;;;;;;6.18;3.90;;;33.40;48.00;;;;;;5014348;28;20037;-57
2023/07/09 11:12:34;;;;;;;4.97;3.92;;;33.40;48.20;;;;;;5019652;28;20453;-57
2023/07/09 11:15:11;;;;;;;7.68;3.65;;;33.30;47.60;;;;;;5024044;28;20034;-59
2023/07/09 11:17:40;;;;;;;4.70;3.22;;;33.20;48.50;;;;;;5033687;28;20061;-59
2023/07/09 11:20:32;;;;;;;5.83;3.60;;;33.10;47.70;;;;;;5016952;28;20029;-58
2023/07/09 11:23:16;;;;;;;7.28;3.90;;;32.90;47.70;;;;;;5021400;28;20037;-59
2023/07/09 11:25:49;;;;;;;4.30;3.53;;;32.80;47.30;;;;;;5003895;28;20510;-57
2023/07/09 11:28:15;;;;;;;8.48;3.35;;;32.80;47.50;;;;;;5031807;28;20044;-59
2023/07/09 11:31:08;;;;;;;3.85;3.25;;;32.90;47.70;;;;;;5027548;28;20029;-59
2023/07/09 11:33:34;;;;;;;8.82;3.78;;;33.20;46.60;;;;;;5028942;28;20026;-58
2023/07/09 11:36:15;;;;;;;3.97;3.38;;;33.30;46.90;;;;;;5029277;28;20445;-59
2023/07/09 11:38:49;;;;;;;4.90;3.90;;;33.50;47.00;;;;;;5022154;28;20037;-59
2023/07/09 11:41:41;;;;;;;4.20;3.80;;;33.80;46.90;;;;;;5037476;28;20055;-59
2023/07/09 11:44:14;;;;;;;3.72;3.33;;;34.00;46.00;;;;;;5015413;28;20022;-60
2023/07/09 11:46:59;;;;;;;4.63;3.65;;;34.00;45.80;;;;;;5017731;28;20044;-57
2023/07/09 11:49:32;;;;;;;4.45;2.75;;;34.10;45.80;;;;;;5016258;28;20033;-58
2023/07/09 11:52:03;;;;;;;3.45;3.15;;;34.10;45.80;;;;;;5030227;28;20033;-58
2023/07/09 11:54:37;;;;;;;4.85;3.88;;;34.00;46.70;;;;;;5024651;28;20034;-58
2023/07/09 11:57:03;;;;;;;5.10;3.60;;;33.90;46.40;;;;;;5024057;28;20041;-58
2023/07/09 11:59:29;;;;;;;3.78;3.00;;;33.80;45.40;;;;;;5037308;28;20029;-58
2023/07/09 12:02:00;;;;;;;3.92;3.03;;;33.80;44.90;;;;;;5019127;28;20500;-59
2023/07/09 12:04:34;;;;;;;3.78;3.30;;;33.80;46.60;;;;;;5034776;28;20028;-58
2023/07/09 12:07:02;;;;;;;4.13;3.35;;;33.80;45.50;;;;;;5022464;28;20121;-60
2023/07/09 12:09:37;;;;;;;3.45;2.97;;;34.00;46.00;;;;;;5029663;28;20071;-60
2023/07/09 12:12:03;;;;;;;5.07;3.22;;;34.20;44.60;;;;;;5036700;28;20053;-58
2023/07/09 12:14:28;;;;;;;3.85;3.30;;;34.20;46.10;;;;;;5018853;28;20033;-57
2023/07/09 12:16:54;;;;;;;3.85;3.13;;;34.40;45.70;;;;;;5019163;28;20072;-59
2023/07/09 12:19:28;;;;;;;4.53;2.92;;;34.40;43.10;;;;;;5037178;28;20033;-58
2023/07/09 12:21:57;;;;;;;4.78;3.17;;;34.60;44.10;;;;;;5022490;28;20041;-57
2023/07/09 12:24:28;;;;;;;4.18;3.00;;;34.60;43.70;;;;;;5016187;28;20045;-59
2023/07/09 12:26:59;;;;;;;3.80;2.88;;;34.70;42.70;;;;;;5023701;28;20116;-58
2023/07/09 12:29:27;;;;;;;4.20;2.88;;;34.60;43.10;;;;;;5036846;28;20028;-59
2023/07/09 12:31:52;;;;;;;4.65;3.22;;;34.60;45.90;;;;;;5022371;28;20092;-58
2023/07/09 12:34:18;;;;;;;3.92;2.97;;;34.70;44.20;;;;;;5037548;28;20501;-60
2023/07/09 12:36:49;;;;;;;4.80;3.20;;;34.70;44.30;;;;;;5024383;28;20030;-58
2023/07/09 12:39:24;;;;;;;4.30;2.75;;;34.90;44.10;;;;;;5028558;28;20036;-56
2023/07/09 12:41:51;;;;;;;3.72;3.13;;;34.90;41.50;;;;;;5035237;28;20034;-58
2023/07/09 12:44:21;;;;;;;4.22;3.30;;;34.70;41.60;;;;;;5016230;28;20036;-57
2023/07/09 12:46:50;;;;;;;5.72;3.08;;;34.40;42.50;;;;;;5035714;28;20033;-58
2023/07/09 12:49:24;;;;;;;6.07;3.25;;;34.10;43.00;;;;;;5021591;28;20038;-57
2023/07/09 12:51:50;;;;;;;7.88;3.63;;;33.80;43.60;;;;;;5032869;28;20120;-57
2023/07/09 12:54:21;;;;;;;4.40;3.25;;;33.60;42.60;;;;;;5033134;28;20141;-59
2023/07/09 12:56:51;;;;;;;4.78;3.13;;;33.70;43.30;;;;;;5026291;28;20040;-59